createdAt,value
2017-12-14T00:01:06.302Z,89.90
2017-12-14T00:03:33.862Z,89.90
2017-12-14T00:06:02.171Z,89.80
2017-12-14T00:08:29.736Z,89.80
2017-12-14T00:10:58.046Z,89.80
2017-12-14T00:13:26.376Z,89.80
2017-12-14T00:15:53.924Z,89.70
2017-12-14T00:18:22.240Z,89.80
2017-12-14T00:20:50.544Z,89.70
2017-12-14T00:23:18.098Z,89.70
2017-12-14T00:25:45.641Z,89.70
2017-12-14T00:28:13.202Z,89.70
2017-12-14T00:30:40.753Z,89.80
2017-12-14T00:33:08.350Z,89.80
2017-12-14T00:35:36.652Z,89.80
2017-12-14T00:38:04.969Z,89.90
2017-12-14T00:40:33.274Z,89.60
2017-12-14T00:43:00.837Z,89.60
2017-12-14T00:45:29.149Z,89.60
2017-12-14T00:47:57.457Z,89.50
2017-12-14T00:50:25.018Z,89.50
2017-12-14T00:52:53.324Z,89.30
2017-12-14T00:55:21.652Z,89.20
2017-12-14T00:57:49.188Z,89.10
2017-12-14T01:00:16.737Z,89.30
2017-12-14T01:02:44.276Z,89.30
2017-12-14T01:05:12.609Z,89.40
2017-12-14T01:07:40.153Z,89.30
2017-12-14T01:10:07.712Z,89.20
2017-12-14T01:12:35.253Z,88.90
2017-12-14T01:15:02.812Z,89.00
2017-12-14T01:17:31.118Z,89.10
2017-12-14T01:19:59.426Z,89.10
2017-12-14T01:22:27.745Z,89.20
2017-12-14T01:24:55.291Z,89.10
2017-12-14T01:27:22.858Z,89.30
2017-12-14T01:29:50.395Z,89.10
2017-12-14T01:32:17.952Z,89.40
2017-12-14T01:34:46.257Z,89.60
2017-12-14T01:37:14.581Z,89.60
2017-12-14T01:39:42.127Z,89.60
2017-12-14T01:42:09.694Z,89.70
2017-12-14T01:44:37.258Z,89.70
2017-12-14T01:47:04.823Z,89.80
2017-12-14T01:49:32.361Z,90.00
2017-12-14T01:51:59.982Z,90.00
2017-12-14T01:54:27.485Z,90.00
2017-12-14T01:56:55.040Z,90.00
2017-12-14T01:59:23.352Z,90.00
2017-12-14T02:01:50.982Z,90.10
2017-12-14T02:04:18.543Z,90.20
2017-12-14T02:06:46.088Z,90.10
2017-12-14T02:09:14.429Z,90.50
2017-12-14T02:11:41.969Z,90.20
2017-12-14T02:14:10.300Z,90.30
2017-12-14T02:16:37.841Z,90.30
2017-12-14T02:19:05.397Z,90.40
2017-12-14T02:21:32.943Z,90.40
2017-12-14T02:24:00.515Z,90.60
2017-12-14T02:26:28.812Z,90.60
2017-12-14T02:28:57.137Z,90.60
2017-12-14T02:31:24.676Z,90.60
2017-12-14T02:33:52.234Z,90.70
2017-12-14T02:36:19.768Z,90.70
2017-12-14T02:38:48.078Z,90.80
2017-12-14T02:41:16.401Z,90.80
2017-12-14T02:43:43.980Z,91.10
2017-12-14T02:46:11.541Z,90.80
2017-12-14T02:48:39.853Z,90.80
2017-12-14T02:51:07.422Z,90.80
2017-12-14T02:53:35.726Z,90.90
2017-12-14T02:56:03.290Z,90.80
2017-12-14T02:58:30.874Z,90.90
2017-12-14T03:00:58.432Z,90.90
2017-12-14T03:03:25.970Z,90.80
2017-12-14T03:05:54.293Z,90.90
2017-12-14T03:08:21.836Z,90.90
2017-12-14T03:10:49.417Z,90.90
2017-12-14T03:13:16.963Z,90.90
2017-12-14T03:15:44.507Z,91.00
2017-12-14T03:18:12.838Z,91.10
2017-12-14T03:20:40.435Z,91.00
2017-12-14T03:23:08.125Z,91.10
2017-12-14T03:25:36.219Z,91.00
2017-12-14T03:28:04.192Z,91.00
2017-12-14T03:30:31.741Z,91.00
2017-12-14T03:32:59.298Z,91.00
2017-12-14T03:35:26.833Z,91.00
2017-12-14T03:37:55.152Z,91.00
2017-12-14T03:40:22.693Z,90.90
2017-12-14T03:42:50.259Z,91.00
2017-12-14T03:45:17.802Z,91.00
2017-12-14T03:47:45.365Z,90.90
2017-12-14T03:50:13.678Z,91.00
2017-12-14T03:52:41.209Z,91.00
2017-12-14T03:55:08.781Z,90.90
2017-12-14T03:57:36.318Z,90.90
2017-12-14T04:00:04.661Z,91.00
2017-12-14T04:02:32.200Z,91.00
2017-12-14T04:05:00.527Z,91.10
2017-12-14T04:07:28.068Z,91.10
2017-12-14T04:09:55.621Z,91.10
2017-12-14T04:12:23.161Z,91.00
2017-12-14T04:14:51.486Z,91.20
2017-12-14T04:17:19.017Z,91.20
2017-12-14T04:19:46.577Z,91.30
2017-12-14T04:22:14.120Z,91.40
2017-12-14T04:24:41.701Z,91.50
2017-12-14T04:27:09.273Z,91.60
2017-12-14T04:29:37.573Z,91.70
2017-12-14T04:32:05.909Z,91.60
2017-12-14T04:34:33.444Z,91.60
2017-12-14T04:37:00.997Z,91.60
2017-12-14T04:39:28.545Z,91.60
2017-12-14T04:41:56.102Z,91.50
2017-12-14T04:44:24.423Z,91.50
2017-12-14T04:46:52.750Z,91.40
2017-12-14T04:49:20.293Z,91.40
2017-12-14T04:51:48.616Z,91.50
2017-12-14T04:54:16.158Z,91.50
2017-12-14T04:56:43.729Z,91.60
2017-12-14T04:59:11.265Z,91.50
2017-12-14T05:01:38.837Z,91.30
2017-12-14T05:04:07.147Z,90.50
2017-12-14T05:06:35.472Z,90.50
2017-12-14T05:09:03.088Z,90.50
2017-12-14T05:11:30.681Z,90.50
2017-12-14T05:13:58.220Z,90.50
2017-12-14T05:16:26.525Z,90.60
2017-12-14T05:18:54.091Z,90.60
2017-12-14T05:21:21.632Z,90.60
2017-12-14T05:23:49.258Z,90.60
2017-12-14T05:26:16.815Z,90.60
2017-12-14T05:28:44.385Z,90.60
2017-12-14T05:31:12.726Z,90.40
2017-12-14T05:33:41.049Z,90.60
2017-12-14T05:36:08.615Z,90.50
2017-12-14T05:38:36.172Z,90.50
2017-12-14T05:41:03.709Z,90.40
2017-12-14T05:43:31.307Z,90.40
2017-12-14T05:45:58.860Z,90.40
2017-12-14T05:48:27.221Z,90.40
2017-12-14T05:50:54.761Z,90.40
2017-12-14T05:53:22.315Z,90.40
2017-12-14T05:55:50.617Z,90.20
2017-12-14T05:58:18.988Z,90.00
2017-12-14T06:00:46.528Z,90.10
2017-12-14T06:03:14.067Z,90.10
2017-12-14T06:05:42.510Z,90.20
2017-12-14T06:08:10.086Z,90.20
2017-12-14T06:10:37.666Z,90.20
2017-12-14T06:13:06.145Z,90.40
2017-12-14T06:15:34.481Z,90.00
2017-12-14T06:18:02.028Z,90.00
2017-12-14T06:20:29.586Z,89.30
2017-12-14T06:22:57.117Z,88.60
2017-12-14T06:25:24.681Z,88.00
2017-12-14T06:27:52.217Z,88.20
2017-12-14T06:30:19.788Z,88.30
2017-12-14T06:32:47.334Z,88.60
2017-12-14T06:35:14.902Z,88.30
2017-12-14T06:37:42.445Z,88.20
2017-12-14T06:40:10.033Z,88.30
2017-12-14T06:42:37.575Z,87.90
2017-12-14T06:45:05.872Z,89.60
2017-12-14T06:47:33.428Z,88.90
2017-12-14T06:50:00.980Z,89.20
2017-12-14T06:52:28.536Z,89.50
2017-12-14T06:54:56.848Z,89.20
2017-12-14T06:57:24.429Z,89.10
2017-12-14T06:59:51.977Z,89.40
2017-12-14T07:02:19.561Z,89.40
2017-12-14T07:04:47.092Z,89.50
2017-12-14T07:07:14.656Z,89.60
2017-12-14T07:09:42.958Z,89.70
2017-12-14T07:12:11.276Z,89.70
2017-12-14T07:14:38.813Z,89.60
2017-12-14T07:17:07.166Z,90.00
2017-12-14T07:19:34.720Z,89.90
2017-12-14T07:22:03.030Z,89.90
2017-12-14T07:24:31.352Z,89.80
2017-12-14T07:26:58.897Z,90.10
2017-12-14T07:29:26.454Z,89.50
2017-12-14T07:31:53.993Z,89.40
2017-12-14T07:34:21.553Z,89.50
2017-12-14T07:36:49.095Z,89.10
2017-12-14T07:39:16.660Z,89.00
2017-12-14T07:41:44.197Z,88.90
2017-12-14T07:44:23.740Z,88.80
2017-12-14T07:47:03.060Z,88.40
2017-12-14T07:49:40.800Z,88.40
2017-12-14T07:52:08.695Z,88.40
2017-12-14T07:54:38.429Z,88.50
2017-12-14T08:49:24.983Z,88.90
2017-12-14T08:51:52.787Z,88.80
2017-12-14T08:54:20.617Z,88.10
2017-12-14T08:56:48.424Z,87.50
2017-12-14T08:59:17.021Z,86.50
2017-12-14T09:01:44.755Z,86.50
2017-12-14T09:04:12.356Z,85.90
2017-12-14T09:06:39.909Z,85.90
2017-12-14T09:09:07.476Z,86.10
2017-12-14T09:11:35.030Z,85.90
2017-12-14T09:14:02.589Z,85.50
2017-12-14T09:16:30.123Z,85.50
2017-12-14T09:18:57.682Z,85.50
2017-12-14T09:21:25.232Z,85.30
2017-12-14T09:23:53.566Z,86.00
2017-12-14T09:26:21.112Z,85.90
2017-12-14T09:28:49.445Z,86.10
2017-12-14T09:31:16.980Z,86.10
2017-12-14T09:33:44.503Z,86.30
2017-12-14T09:36:12.048Z,86.60
2017-12-14T09:38:39.583Z,86.60
2017-12-14T09:41:07.149Z,86.40
2017-12-14T09:43:34.696Z,86.10
2017-12-14T09:46:02.261Z,85.90
2017-12-14T09:48:29.783Z,85.70
2017-12-14T09:50:58.110Z,85.50
2017-12-14T09:53:25.648Z,85.50
2017-12-14T09:55:53.199Z,85.50
2017-12-14T09:58:20.760Z,85.30
2017-12-14T10:00:48.315Z,85.40
2017-12-14T10:03:17.348Z,85.40
2017-12-14T10:05:45.676Z,85.00
2017-12-14T10:08:13.985Z,84.70
2017-12-14T10:10:41.532Z,84.70
2017-12-14T10:13:09.829Z,84.20
2017-12-14T10:15:38.147Z,83.90
2017-12-14T10:18:05.683Z,84.00
2017-12-14T10:20:33.217Z,83.80
2017-12-14T10:23:00.773Z,83.20
2017-12-14T10:25:29.076Z,84.40
2017-12-14T10:27:57.396Z,83.60
2017-12-14T10:30:25.700Z,83.20
2017-12-14T10:32:54.025Z,83.00
2017-12-14T10:35:21.560Z,83.00
2017-12-14T10:37:49.881Z,83.10
2017-12-14T10:40:17.412Z,83.00
2017-12-14T10:42:45.734Z,82.20
2017-12-14T10:45:13.273Z,82.20
2017-12-14T10:47:41.591Z,81.40
2017-12-14T10:50:09.120Z,81.40
2017-12-14T10:52:36.675Z,81.60
2017-12-14T10:55:04.211Z,81.90
2017-12-14T10:57:31.834Z,82.40
2017-12-14T10:59:59.420Z,82.10
2017-12-14T11:02:27.744Z,82.50
2017-12-14T11:04:55.284Z,82.50
2017-12-14T11:07:23.579Z,82.20
2017-12-14T11:09:51.137Z,82.20
2017-12-14T11:12:19.440Z,82.80
2017-12-14T11:14:46.990Z,82.60
2017-12-14T11:17:15.300Z,82.70
2017-12-14T11:19:43.626Z,82.20
2017-12-14T11:22:11.152Z,82.20
2017-12-14T11:24:39.471Z,81.70
2017-12-14T11:27:07.010Z,81.70
2017-12-14T11:29:35.342Z,81.30
2017-12-14T11:32:02.876Z,81.40
2017-12-14T11:34:31.210Z,81.60
2017-12-14T11:36:58.754Z,81.40
2017-12-14T11:39:26.312Z,81.30
2017-12-14T11:41:54.608Z,81.20
2017-12-14T11:44:22.147Z,81.20
2017-12-14T11:46:49.709Z,81.30
2017-12-14T11:49:17.233Z,81.20
2017-12-14T11:51:44.809Z,80.70
2017-12-14T11:54:13.115Z,81.30
2017-12-14T11:56:40.678Z,81.30
2017-12-14T11:59:08.216Z,80.90
2017-12-14T12:01:36.555Z,80.40
2017-12-14T12:04:04.105Z,80.30
2017-12-14T12:06:31.661Z,80.60
2017-12-14T12:08:59.198Z,81.10
2017-12-14T12:11:26.832Z,80.90
2017-12-14T12:13:54.364Z,81.10
2017-12-14T12:16:22.738Z,81.60
2017-12-14T12:18:50.257Z,81.60
2017-12-14T12:21:17.813Z,80.50
2017-12-14T12:23:45.339Z,80.50
2017-12-14T12:26:12.888Z,80.40
2017-12-14T12:28:40.432Z,81.20
2017-12-14T12:31:08.000Z,80.30
2017-12-14T12:33:35.541Z,79.20
2017-12-14T12:36:03.847Z,79.50
2017-12-14T12:38:31.406Z,79.50
2017-12-14T12:40:59.706Z,79.70
2017-12-14T12:43:28.031Z,79.60
2017-12-14T12:45:55.579Z,79.60
2017-12-14T12:48:23.129Z,79.90
2017-12-14T12:50:51.447Z,80.30
2017-12-14T12:53:19.007Z,80.10
2017-12-14T12:55:46.550Z,80.00
2017-12-14T12:58:14.108Z,79.50
2017-12-14T13:00:41.673Z,80.20
2017-12-14T13:03:09.232Z,79.90
2017-12-14T13:05:36.770Z,79.70
2017-12-14T13:08:04.314Z,79.50
2017-12-14T13:10:32.621Z,79.80
2017-12-14T13:13:00.175Z,79.80
2017-12-14T13:15:28.477Z,79.40
2017-12-14T13:17:56.031Z,79.30
2017-12-14T13:20:24.329Z,78.50
2017-12-14T13:22:52.677Z,77.80
2017-12-14T13:25:20.234Z,77.80
2017-12-14T13:27:47.788Z,78.90
2017-12-14T13:30:15.433Z,79.20
2017-12-14T13:32:42.998Z,79.10
2017-12-14T13:35:10.552Z,79.10
2017-12-14T13:37:38.098Z,79.30
2017-12-14T13:40:05.697Z,79.70
2017-12-14T13:42:33.217Z,81.00
2017-12-14T13:45:00.768Z,82.50
2017-12-14T13:47:29.074Z,82.70
2017-12-14T13:49:56.637Z,82.70
2017-12-14T13:52:24.181Z,82.80
2017-12-14T13:54:51.737Z,82.60
2017-12-14T13:57:19.271Z,82.00
2017-12-14T13:59:46.825Z,82.40
2017-12-14T14:02:14.363Z,82.40
2017-12-14T14:04:41.912Z,82.90
2017-12-14T14:07:09.506Z,83.70
2017-12-14T14:09:37.044Z,84.00
2017-12-14T14:12:04.604Z,83.90
2017-12-14T14:14:32.165Z,84.00
2017-12-14T14:16:59.722Z,83.60
2017-12-14T14:19:27.251Z,83.60
2017-12-14T14:21:54.835Z,81.50
2017-12-14T14:24:23.145Z,81.40
2017-12-14T14:26:51.473Z,81.00
2017-12-14T14:29:19.018Z,80.90
2017-12-14T14:31:46.569Z,80.00
2017-12-14T14:34:14.872Z,80.10
2017-12-14T14:36:43.188Z,80.20
2017-12-14T14:39:10.740Z,80.20
2017-12-14T14:41:38.336Z,78.80
2017-12-14T14:44:05.878Z,79.30
2017-12-14T14:46:34.206Z,78.30
2017-12-14T14:49:01.753Z,78.20
2017-12-14T14:51:29.312Z,78.50
2017-12-14T14:53:56.857Z,78.10
2017-12-14T14:56:24.420Z,78.20
2017-12-14T14:58:51.949Z,78.70
2017-12-14T15:01:19.504Z,78.20
2017-12-14T15:03:47.073Z,77.80
2017-12-14T15:06:14.704Z,78.30
2017-12-14T15:08:42.257Z,78.40
2017-12-14T15:11:09.812Z,78.70
2017-12-14T15:13:37.368Z,78.90
2017-12-14T15:16:04.916Z,79.50
2017-12-14T15:18:33.235Z,80.10
2017-12-14T15:21:00.792Z,80.00
2017-12-14T15:23:29.106Z,80.00
2017-12-14T15:25:57.402Z,80.00
2017-12-14T15:28:25.770Z,80.00
2017-12-14T15:30:53.309Z,80.00
2017-12-14T15:33:21.619Z,80.30
2017-12-14T15:35:49.152Z,80.30
2017-12-14T15:38:16.709Z,80.80
2017-12-14T15:40:44.254Z,80.90
2017-12-14T15:43:12.578Z,81.20
2017-12-14T15:45:40.128Z,81.10
2017-12-14T15:48:07.665Z,81.40
2017-12-14T15:50:35.233Z,82.10
2017-12-14T15:53:03.534Z,83.00
2017-12-14T15:55:31.087Z,82.90
2017-12-14T15:57:59.389Z,83.10
2017-12-14T16:00:26.944Z,83.00
2017-12-14T16:02:55.260Z,83.40
2017-12-14T16:05:22.811Z,83.30
2017-12-14T16:07:51.118Z,84.20
2017-12-14T16:10:18.687Z,84.10
2017-12-14T16:12:46.236Z,84.40
2017-12-14T16:15:14.547Z,85.40
2017-12-14T16:17:42.084Z,85.40
2017-12-14T16:20:09.645Z,85.90
2017-12-14T16:22:37.179Z,86.30
2017-12-14T16:25:04.717Z,86.60
2017-12-14T16:27:33.040Z,86.90
2017-12-14T16:30:00.580Z,86.90
2017-12-14T16:32:28.905Z,87.40
2017-12-14T16:34:56.453Z,87.40
2017-12-14T16:37:24.008Z,87.60
2017-12-14T16:39:52.357Z,88.60
2017-12-14T16:42:19.914Z,88.50
2017-12-14T16:44:47.461Z,88.60
2017-12-14T16:47:15.030Z,88.80
2017-12-14T16:49:42.568Z,88.90
2017-12-14T16:52:10.140Z,89.10
2017-12-14T16:54:38.579Z,89.30
2017-12-14T16:57:06.157Z,89.40
2017-12-14T16:59:33.717Z,89.60
2017-12-14T17:02:01.269Z,89.40
2017-12-14T17:04:29.588Z,89.30
2017-12-14T17:06:57.119Z,89.30
2017-12-14T17:09:25.464Z,89.00
2017-12-14T17:11:53.003Z,89.00
2017-12-14T17:14:20.560Z,88.90
2017-12-14T17:16:48.099Z,88.70
2017-12-14T17:19:15.655Z,88.50
2017-12-14T17:21:43.197Z,88.30
2017-12-14T17:24:10.746Z,87.80
2017-12-14T17:26:39.051Z,87.90
2017-12-14T17:29:06.603Z,87.80
2017-12-14T17:31:34.929Z,87.80
2017-12-14T17:34:02.507Z,87.80
2017-12-14T17:36:30.081Z,87.70
2017-12-14T17:38:57.603Z,87.50
2017-12-14T17:41:25.920Z,87.00
2017-12-14T17:43:53.457Z,87.00
2017-12-14T17:46:21.776Z,86.50
2017-12-14T17:48:49.333Z,86.30
2017-12-14T17:51:16.893Z,85.90
2017-12-14T17:53:45.195Z,86.00
2017-12-14T17:56:12.744Z,86.00
2017-12-14T17:58:40.281Z,85.50
2017-12-14T18:01:07.828Z,85.70
2017-12-14T18:03:35.366Z,85.70
2017-12-14T18:06:03.689Z,85.50
2017-12-14T18:08:31.235Z,85.40
2017-12-14T18:10:59.547Z,85.10
2017-12-14T18:13:27.077Z,85.10
2017-12-14T18:15:55.419Z,85.20
2017-12-14T18:18:22.961Z,85.10
2017-12-14T18:20:50.513Z,85.40
2017-12-14T18:23:18.834Z,85.50
2017-12-14T18:25:46.359Z,85.50
2017-12-14T18:28:13.920Z,85.40
2017-12-14T18:30:41.465Z,86.60
2017-12-14T18:33:09.031Z,86.00
2017-12-14T18:35:36.567Z,86.20
2017-12-14T18:38:04.890Z,86.70
2017-12-14T18:40:32.425Z,86.60
2017-12-14T18:43:00.739Z,86.90
2017-12-14T18:45:28.270Z,86.80
2017-12-14T18:47:55.829Z,86.80
2017-12-14T18:50:23.359Z,86.90
2017-12-14T18:52:50.924Z,87.20
2017-12-14T18:55:18.457Z,87.40
2017-12-14T18:57:45.993Z,87.40
2017-12-14T19:00:13.547Z,87.30
2017-12-14T19:02:41.123Z,87.50
2017-12-14T19:05:08.676Z,87.60
2017-12-14T19:07:36.237Z,87.80
2017-12-14T19:10:04.568Z,88.20
2017-12-14T19:12:32.131Z,88.20
2017-12-14T19:14:59.685Z,88.20
2017-12-14T19:17:27.215Z,88.40
2017-12-14T19:19:54.764Z,88.80
2017-12-14T19:22:22.304Z,89.00
2017-12-14T19:24:52.044Z,88.90
2017-12-14T19:27:19.608Z,88.90
2017-12-14T19:29:49.721Z,89.10
2017-12-14T19:32:17.401Z,89.20
2017-12-14T19:34:44.991Z,89.10
2017-12-14T19:37:12.557Z,89.40
2017-12-14T19:39:40.216Z,89.50
2017-12-14T19:42:07.748Z,89.40
2017-12-14T19:44:35.481Z,89.20
2017-12-14T19:47:03.051Z,89.10
2017-12-14T19:49:31.085Z,89.00
2017-12-14T19:51:58.652Z,89.10
2017-12-14T19:54:26.184Z,89.30
2017-12-14T19:56:53.748Z,89.30
2017-12-14T19:59:21.288Z,89.50
2017-12-14T20:01:49.608Z,89.40
2017-12-14T20:04:17.173Z,89.30
2017-12-14T20:06:44.738Z,89.80
2017-12-14T20:09:19.309Z,89.60
2017-12-14T20:11:46.888Z,89.60
2017-12-14T20:14:15.696Z,89.60
2017-12-14T20:16:43.270Z,89.50
2017-12-14T20:19:10.809Z,89.70
2017-12-14T20:21:39.104Z,89.70
2017-12-14T20:24:06.639Z,89.50
2017-12-14T20:26:34.266Z,89.60
2017-12-14T20:29:01.825Z,89.80
2017-12-14T20:31:29.356Z,89.80
2017-12-14T20:33:56.903Z,90.00
2017-12-14T20:36:24.437Z,90.00
2017-12-14T20:38:51.993Z,90.00
2017-12-14T20:41:19.526Z,90.00
2017-12-14T20:43:47.860Z,90.00
2017-12-14T20:46:15.497Z,90.00
2017-12-14T20:48:43.807Z,90.00
2017-12-14T20:51:11.422Z,89.90
2017-12-14T20:53:39.040Z,90.00
2017-12-14T20:56:07.475Z,90.10
2017-12-14T20:58:35.079Z,90.00
2017-12-14T21:01:02.619Z,90.10
2017-12-14T21:03:30.169Z,90.10
2017-12-14T21:05:57.719Z,90.10
2017-12-14T21:08:25.266Z,90.00
2017-12-14T21:10:54.608Z,89.70
2017-12-14T21:13:22.363Z,89.50
2017-12-14T21:15:50.685Z,89.50
2017-12-14T21:18:18.222Z,89.50
2017-12-14T21:20:46.552Z,89.60
2017-12-14T21:23:14.092Z,89.60
2017-12-14T21:25:42.483Z,89.60
2017-12-14T21:28:10.068Z,89.60
2017-12-14T21:30:37.862Z,89.60
2017-12-14T21:33:05.598Z,89.70
2017-12-14T21:35:34.205Z,89.90
2017-12-14T21:38:01.915Z,89.70
2017-12-14T21:40:29.746Z,89.70
2017-12-14T21:42:58.391Z,89.50
2017-12-14T21:45:27.090Z,89.40
2017-12-14T21:47:54.896Z,89.40
2017-12-14T21:50:22.664Z,89.40
2017-12-14T21:52:50.424Z,89.40
2017-12-14T21:55:18.198Z,89.40
2017-12-14T21:57:46.160Z,89.30
2017-12-14T22:00:14.046Z,89.30
2017-12-14T22:02:41.906Z,89.20
2017-12-14T22:05:09.684Z,89.20
2017-12-14T22:07:37.469Z,89.30
2017-12-14T22:10:05.121Z,89.10
2017-12-14T22:12:33.772Z,89.30
2017-12-14T22:15:01.526Z,89.20
2017-12-14T22:17:29.273Z,89.30
2017-12-14T22:19:56.965Z,89.40
2017-12-14T22:22:24.684Z,90.10
2017-12-14T22:24:52.487Z,89.10
2017-12-14T22:27:20.387Z,89.10
2017-12-14T22:29:48.322Z,89.00
2017-12-14T22:32:16.068Z,89.00
2017-12-14T22:34:43.927Z,89.10
2017-12-14T22:37:12.456Z,89.20
2017-12-14T22:39:41.042Z,89.20
2017-12-14T22:42:08.856Z,89.20
2017-12-14T22:44:36.636Z,89.40
2017-12-14T22:47:05.230Z,89.40
2017-12-14T22:49:33.082Z,89.40
2017-12-14T22:52:00.894Z,89.40
2017-12-14T22:54:29.247Z,89.50
2017-12-14T22:56:56.796Z,89.50
2017-12-14T22:59:28.796Z,89.50
2017-12-14T23:01:56.333Z,89.60
2017-12-14T23:04:24.647Z,89.60
2017-12-14T23:06:52.194Z,89.60
2017-12-14T23:09:19.792Z,89.60
2017-12-14T23:11:47.329Z,89.70
2017-12-14T23:14:14.892Z,89.80
2017-12-14T23:16:42.433Z,89.80
2017-12-14T23:19:09.986Z,89.80
2017-12-14T23:21:37.525Z,89.90
2017-12-14T23:24:05.876Z,89.90
2017-12-14T23:26:33.421Z,89.90
2017-12-14T23:29:00.981Z,89.90
2017-12-14T23:31:28.593Z,90.00
2017-12-14T23:33:56.938Z,89.80
2017-12-14T23:36:24.500Z,89.70
2017-12-14T23:38:52.805Z,89.60
2017-12-14T23:41:20.367Z,89.60
2017-12-14T23:43:47.950Z,89.60
2017-12-14T23:46:16.254Z,89.70
2017-12-14T23:48:43.793Z,89.70
2017-12-14T23:51:11.365Z,89.70
2017-12-14T23:53:39.664Z,89.90
2017-12-14T23:56:07.215Z,89.80
2017-12-14T23:58:35.521Z,89.70
